sensor_id;sensor_type;location;lat;lon;timestamp;P1;durP1;ratioP1;P2;durP2;ratioP2
17207;SDS011;8720;48.488;9.202;2022-07-10T00:01:38;6.27;;;4.03;;
17207;SDS011;8720;48.488;9.202;2022-07-10T00:04:05;3.13;;;2.90;;
17207;SDS011;8720;48.488;9.202;2022-07-10T00:06:32;3.23;;;2.90;;
17207;SDS011;8720;48.488;9.202;2022-07-10T00:09:02;3.47;;;3.17;;
17207;SDS011;8720;48.488;9.202;2022-07-10T00:11:29;3.43;;;3.13;;
17207;SDS011;8720;48.488;9.202;2022-07-10T00:13:56;3.00;;;2.80;;
17207;SDS011;8720;48.488;9.202;2022-07-10T00:16:23;2.83;;;2.63;;
17207;SDS011;8720;48.488;9.202;2022-07-10T00:18:52;3.70;;;3.40;;
17207;SDS011;8720;48.488;9.202;2022-07-10T00:21:19;3.33;;;3.03;;
17207;SDS011;8720;48.488;9.202;2022-07-10T00:23:46;3.47;;;3.27;;
17207;SDS011;8720;48.488;9.202;2022-07-10T00:26:15;3.10;;;2.90;;
17207;SDS011;8720;48.488;9.202;2022-07-10T00:28:42;3.47;;;3.17;;
17207;SDS011;8720;48.488;9.202;2022-07-10T00:31:10;4.90;;;2.93;;
17207;SDS011;8720;48.488;9.202;2022-07-10T00:33:37;3.57;;;3.37;;
17207;SDS011;8720;48.488;9.202;2022-07-10T00:36:04;5.40;;;3.47;;
17207;SDS011;8720;48.488;9.202;2022-07-10T00:38:33;3.40;;;3.10;;
17207;SDS011;8720;48.488;9.202;2022-07-10T00:41:00;3.67;;;3.37;;
17207;SDS011;8720;48.488;9.202;2022-07-10T00:43:29;3.07;;;2.80;;
17207;SDS011;8720;48.488;9.202;2022-07-10T00:45:56;3.33;;;3.13;;
17207;SDS011;8720;48.488;9.202;2022-07-10T00:48:24;4.00;;;3.60;;
17207;SDS011;8720;48.488;9.202;2022-07-10T00:50:51;4.63;;;3.90;;
17207;SDS011;8720;48.488;9.202;2022-07-10T00:53:18;4.23;;;3.83;;
17207;SDS011;8720;48.488;9.202;2022-07-10T00:55:45;3.63;;;3.33;;
17207;SDS011;8720;48.488;9.202;2022-07-10T00:58:13;4.33;;;3.93;;
17207;SDS011;8720;48.488;9.202;2022-07-10T01:00:42;3.77;;;3.53;;
17207;SDS011;8720;48.488;9.202;2022-07-10T01:03:10;3.40;;;3.10;;
17207;SDS011;8720;48.488;9.202;2022-07-10T01:05:37;3.90;;;3.60;;
17207;SDS011;8720;48.488;9.202;2022-07-10T01:08:05;3.83;;;3.43;;
17207;SDS011;8720;48.488;9.202;2022-07-10T01:10:32;3.90;;;3.33;;
17207;SDS011;8720;48.488;9.202;2022-07-10T01:12:59;3.47;;;3.20;;
17207;SDS011;8720;48.488;9.202;2022-07-10T01:15:28;4.30;;;3.90;;
17207;SDS011;8720;48.488;9.202;2022-07-10T01:17:57;3.40;;;3.10;;
17207;SDS011;8720;48.488;9.202;2022-07-10T01:20:29;4.80;;;3.60;;
17207;SDS011;8720;48.488;9.202;2022-07-10T01:22:58;4.27;;;3.87;;
17207;SDS011;8720;48.488;9.202;2022-07-10T01:25:26;4.53;;;3.77;;
17207;SDS011;8720;48.488;9.202;2022-07-10T01:27:53;3.90;;;3.40;;
17207;SDS011;8720;48.488;9.202;2022-07-10T01:30:20;4.23;;;3.70;;
17207;SDS011;8720;48.488;9.202;2022-07-10T01:32:48;4.10;;;3.80;;
17207;SDS011;8720;48.488;9.202;2022-07-10T01:35:15;4.50;;;4.10;;
17207;SDS011;8720;48.488;9.202;2022-07-10T01:37:42;4.67;;;4.27;;
17207;SDS011;8720;48.488;9.202;2022-07-10T01:40:11;4.60;;;4.20;;
17207;SDS011;8720;48.488;9.202;2022-07-10T01:42:39;4.10;;;3.80;;
17207;SDS011;8720;48.488;9.202;2022-07-10T01:45:06;5.00;;;4.47;;
17207;SDS011;8720;48.488;9.202;2022-07-10T01:47:35;4.83;;;4.40;;
17207;SDS011;8720;48.488;9.202;2022-07-10T01:50:03;3.70;;;3.40;;
17207;SDS011;8720;48.488;9.202;2022-07-10T01:52:32;4.17;;;3.83;;
17207;SDS011;8720;48.488;9.202;2022-07-10T01:54:59;4.23;;;3.87;;
17207;SDS011;8720;48.488;9.202;2022-07-10T01:57:28;4.70;;;4.13;;
17207;SDS011;8720;48.488;9.202;2022-07-10T01:59:55;3.73;;;3.50;;
17207;SDS011;8720;48.488;9.202;2022-07-10T02:05:05;4.27;;;3.83;;
17207;SDS011;8720;48.488;9.202;2022-07-10T02:07:32;3.63;;;3.33;;
17207;SDS011;8720;48.488;9.202;2022-07-10T02:09:59;3.80;;;3.50;;
17207;SDS011;8720;48.488;9.202;2022-07-10T02:12:28;4.90;;;3.67;;
17207;SDS011;8720;48.488;9.202;2022-07-10T02:14:56;3.93;;;3.53;;
17207;SDS011;8720;48.488;9.202;2022-07-10T02:17:25;3.63;;;3.33;;
17207;SDS011;8720;48.488;9.202;2022-07-10T02:19:52;3.70;;;3.40;;
17207;SDS011;8720;48.488;9.202;2022-07-10T02:22:19;3.90;;;3.50;;
17207;SDS011;8720;48.488;9.202;2022-07-10T02:24:47;4.30;;;3.90;;
17207;SDS011;8720;48.488;9.202;2022-07-10T02:27:14;6.40;;;3.40;;
17207;SDS011;8720;48.488;9.202;2022-07-10T02:29:42;3.97;;;3.67;;
17207;SDS011;8720;48.488;9.202;2022-07-10T02:32:10;4.03;;;3.63;;
17207;SDS011;8720;48.488;9.202;2022-07-10T02:34:37;3.73;;;3.43;;
17207;SDS011;8720;48.488;9.202;2022-07-10T02:37:04;4.00;;;3.70;;
17207;SDS011;8720;48.488;9.202;2022-07-10T02:39:31;3.20;;;2.90;;
17207;SDS011;8720;48.488;9.202;2022-07-10T02:41:59;4.50;;;3.80;;
17207;SDS011;8720;48.488;9.202;2022-07-10T02:44:27;3.47;;;3.23;;
17207;SDS011;8720;48.488;9.202;2022-07-10T02:46:56;4.03;;;3.63;;
17207;SDS011;8720;48.488;9.202;2022-07-10T02:49:23;4.27;;;3.87;;
17207;SDS011;8720;48.488;9.202;2022-07-10T02:51:50;4.33;;;3.90;;
17207;SDS011;8720;48.488;9.202;2022-07-10T02:54:18;4.10;;;3.70;;
17207;SDS011;8720;48.488;9.202;2022-07-10T02:56:45;4.50;;;4.00;;
17207;SDS011;8720;48.488;9.202;2022-07-10T02:59:12;3.70;;;3.40;;
17207;SDS011;8720;48.488;9.202;2022-07-10T03:01:39;5.40;;;3.87;;
17207;SDS011;8720;48.488;9.202;2022-07-10T03:04:08;5.47;;;4.60;;
17207;SDS011;8720;48.488;9.202;2022-07-10T03:06:35;4.53;;;4.13;;
17207;SDS011;8720;48.488;9.202;2022-07-10T03:09:03;4.47;;;4.07;;
17207;SDS011;8720;48.488;9.202;2022-07-10T03:11:30;7.67;;;4.63;;
17207;SDS011;8720;48.488;9.202;2022-07-10T03:13:57;4.57;;;3.90;;
17207;SDS011;8720;48.488;9.202;2022-07-10T03:16:24;4.63;;;4.23;;
17207;SDS011;8720;48.488;9.202;2022-07-10T03:18:51;6.40;;;5.80;;
17207;SDS011;8720;48.488;9.202;2022-07-10T03:21:20;5.20;;;4.80;;
17207;SDS011;8720;48.488;9.202;2022-07-10T03:23:47;5.67;;;4.90;;
17207;SDS011;8720;48.488;9.202;2022-07-10T03:26:15;5.97;;;5.47;;
17207;SDS011;8720;48.488;9.202;2022-07-10T03:28:42;6.00;;;5.40;;
17207;SDS011;8720;48.488;9.202;2022-07-10T03:31:09;5.90;;;5.40;;
17207;SDS011;8720;48.488;9.202;2022-07-10T03:33:37;5.87;;;5.43;;
17207;SDS011;8720;48.488;9.202;2022-07-10T03:36:04;5.90;;;5.40;;
17207;SDS011;8720;48.488;9.202;2022-07-10T03:38:33;6.17;;;5.67;;
17207;SDS011;8720;48.488;9.202;2022-07-10T03:41:00;6.93;;;5.50;;
17207;SDS011;8720;48.488;9.202;2022-07-10T03:43:28;6.77;;;6.07;;
17207;SDS011;8720;48.488;9.202;2022-07-10T03:45:56;7.40;;;5.77;;
17207;SDS011;8720;48.488;9.202;2022-07-10T03:48:23;6.27;;;5.67;;
17207;SDS011;8720;48.488;9.202;2022-07-10T03:50:50;7.07;;;6.37;;
17207;SDS011;8720;48.488;9.202;2022-07-10T03:53:18;7.00;;;5.90;;
17207;SDS011;8720;48.488;9.202;2022-07-10T03:55:47;7.90;;;7.23;;
17207;SDS011;8720;48.488;9.202;2022-07-10T03:58:14;6.73;;;6.13;;
17207;SDS011;8720;48.488;9.202;2022-07-10T04:00:40;8.13;;;7.50;;
17207;SDS011;8720;48.488;9.202;2022-07-10T04:03:08;9.00;;;8.10;;
17207;SDS011;8720;48.488;9.202;2022-07-10T04:05:36;7.47;;;6.87;;
17207;SDS011;8720;48.488;9.202;2022-07-10T04:08:04;8.30;;;7.53;;
17207;SDS011;8720;48.488;9.202;2022-07-10T04:10:32;8.10;;;7.37;;
17207;SDS011;8720;48.488;9.202;2022-07-10T04:13:01;8.87;;;7.77;;
17207;SDS011;8720;48.488;9.202;2022-07-10T04:15:29;7.00;;;6.47;;
17207;SDS011;8720;48.488;9.202;2022-07-10T04:17:56;8.43;;;7.63;;
17207;SDS011;8720;48.488;9.202;2022-07-10T04:20:23;8.37;;;7.57;;
17207;SDS011;8720;48.488;9.202;2022-07-10T04:22:51;11.50;;;9.17;;
17207;SDS011;8720;48.488;9.202;2022-07-10T04:25:18;8.40;;;7.60;;
17207;SDS011;8720;48.488;9.202;2022-07-10T04:27:45;8.87;;;8.07;;
17207;SDS011;8720;48.488;9.202;2022-07-10T04:30:14;8.73;;;7.97;;
17207;SDS011;8720;48.488;9.202;2022-07-10T04:32:41;9.63;;;8.63;;
17207;SDS011;8720;48.488;9.202;2022-07-10T04:35:08;7.63;;;6.83;;
17207;SDS011;8720;48.488;9.202;2022-07-10T04:37:36;8.00;;;7.20;;
17207;SDS011;8720;48.488;9.202;2022-07-10T04:40:04;8.17;;;7.47;;
17207;SDS011;8720;48.488;9.202;2022-07-10T04:42:33;7.70;;;7.10;;
17207;SDS011;8720;48.488;9.202;2022-07-10T04:45:00;8.00;;;7.30;;
17207;SDS011;8720;48.488;9.202;2022-07-10T04:47:29;7.90;;;7.20;;
17207;SDS011;8720;48.488;9.202;2022-07-10T04:49:56;7.57;;;6.80;;
17207;SDS011;8720;48.488;9.202;2022-07-10T04:52:24;7.60;;;6.90;;
17207;SDS011;8720;48.488;9.202;2022-07-10T04:54:51;7.40;;;6.70;;
17207;SDS011;8720;48.488;9.202;2022-07-10T04:57:19;7.23;;;6.63;;
17207;SDS011;8720;48.488;9.202;2022-07-10T04:59:46;6.73;;;5.97;;
17207;SDS011;8720;48.488;9.202;2022-07-10T05:02:13;7.50;;;6.90;;
17207;SDS011;8720;48.488;9.202;2022-07-10T05:04:42;7.37;;;6.67;;
17207;SDS011;8720;48.488;9.202;2022-07-10T05:07:09;7.43;;;6.73;;
17207;SDS011;8720;48.488;9.202;2022-07-10T05:09:36;7.50;;;6.40;;
17207;SDS011;8720;48.488;9.202;2022-07-10T05:12:04;6.90;;;6.30;;
17207;SDS011;8720;48.488;9.202;2022-07-10T05:14:32;7.00;;;6.40;;
17207;SDS011;8720;48.488;9.202;2022-07-10T05:16:59;6.80;;;6.10;;
17207;SDS011;8720;48.488;9.202;2022-07-10T05:19:27;7.07;;;6.47;;
17207;SDS011;8720;48.488;9.202;2022-07-10T05:21:55;6.77;;;6.10;;
17207;SDS011;8720;48.488;9.202;2022-07-10T05:24:22;6.50;;;5.90;;
17207;SDS011;8720;48.488;9.202;2022-07-10T05:26:50;7.20;;;5.70;;
17207;SDS011;8720;48.488;9.202;2022-07-10T05:29:17;6.80;;;6.10;;
17207;SDS011;8720;48.488;9.202;2022-07-10T05:31:47;6.67;;;5.93;;
17207;SDS011;8720;48.488;9.202;2022-07-10T05:34:14;5.90;;;5.40;;
17207;SDS011;8720;48.488;9.202;2022-07-10T05:36:42;5.93;;;5.30;;
17207;SDS011;8720;48.488;9.202;2022-07-10T05:39:10;7.20;;;6.50;;
17207;SDS011;8720;48.488;9.202;2022-07-10T05:41:41;6.43;;;5.40;;
17207;SDS011;8720;48.488;9.202;2022-07-10T05:44:08;9.00;;;5.60;;
17207;SDS011;8720;48.488;9.202;2022-07-10T05:46:35;6.23;;;5.63;;
17207;SDS011;8720;48.488;9.202;2022-07-10T05:49:02;6.27;;;5.77;;
17207;SDS011;8720;48.488;9.202;2022-07-10T05:51:30;5.93;;;5.37;;
17207;SDS011;8720;48.488;9.202;2022-07-10T05:53:57;5.20;;;4.70;;
17207;SDS011;8720;48.488;9.202;2022-07-10T05:56:26;6.00;;;5.40;;
17207;SDS011;8720;48.488;9.202;2022-07-10T05:58:53;7.13;;;4.83;;
17207;SDS011;8720;48.488;9.202;2022-07-10T06:01:21;5.00;;;4.60;;
17207;SDS011;8720;48.488;9.202;2022-07-10T06:03:51;8.00;;;4.70;;
17207;SDS011;8720;48.488;9.202;2022-07-10T06:06:19;4.37;;;4.07;;
17207;SDS011;8720;48.488;9.202;2022-07-10T06:08:46;3.90;;;3.57;;
17207;SDS011;8720;48.488;9.202;2022-07-10T06:11:14;4.10;;;3.80;;
17207;SDS011;8720;48.488;9.202;2022-07-10T06:13:42;6.63;;;3.63;;
17207;SDS011;8720;48.488;9.202;2022-07-10T06:16:10;4.70;;;3.87;;
17207;SDS011;8720;48.488;9.202;2022-07-10T06:18:37;5.93;;;3.73;;
17207;SDS011;8720;48.488;9.202;2022-07-10T06:21:04;3.77;;;3.17;;
17207;SDS011;8720;48.488;9.202;2022-07-10T06:23:31;4.37;;;3.30;;
17207;SDS011;8720;48.488;9.202;2022-07-10T06:25:58;5.00;;;3.40;;
17207;SDS011;8720;48.488;9.202;2022-07-10T06:28:26;4.57;;;3.60;;
17207;SDS011;8720;48.488;9.202;2022-07-10T06:30:54;4.50;;;2.97;;
17207;SDS011;8720;48.488;9.202;2022-07-10T06:33:22;3.57;;;3.13;;
17207;SDS011;8720;48.488;9.202;2022-07-10T06:35:49;3.90;;;3.60;;
17207;SDS011;8720;48.488;9.202;2022-07-10T06:38:16;4.70;;;3.30;;
17207;SDS011;8720;48.488;9.202;2022-07-10T06:40:43;3.80;;;3.17;;
17207;SDS011;8720;48.488;9.202;2022-07-10T06:43:13;3.60;;;3.30;;
17207;SDS011;8720;48.488;9.202;2022-07-10T06:45:41;3.70;;;3.33;;
17207;SDS011;8720;48.488;9.202;2022-07-10T06:48:09;4.50;;;3.13;;
17207;SDS011;8720;48.488;9.202;2022-07-10T06:50:37;6.10;;;3.70;;
17207;SDS011;8720;48.488;9.202;2022-07-10T06:53:05;4.90;;;3.00;;
17207;SDS011;8720;48.488;9.202;2022-07-10T06:55:32;3.43;;;3.10;;
17207;SDS011;8720;48.488;9.202;2022-07-10T06:58:01;2.87;;;2.60;;
17207;SDS011;8720;48.488;9.202;2022-07-10T07:00:28;3.03;;;2.80;;
17207;SDS011;8720;48.488;9.202;2022-07-10T07:02:58;3.17;;;2.97;;
17207;SDS011;8720;48.488;9.202;2022-07-10T07:05:27;3.40;;;2.67;;
17207;SDS011;8720;48.488;9.202;2022-07-10T07:07:54;2.33;;;2.13;;
17207;SDS011;8720;48.488;9.202;2022-07-10T07:10:22;4.53;;;2.70;;
17207;SDS011;8720;48.488;9.202;2022-07-10T07:12:49;2.60;;;2.23;;
17207;SDS011;8720;48.488;9.202;2022-07-10T07:15:16;4.33;;;2.30;;
17207;SDS011;8720;48.488;9.202;2022-07-10T07:17:46;2.77;;;2.10;;
17207;SDS011;8720;48.488;9.202;2022-07-10T07:20:38;4.00;;;2.07;;
17207;SDS011;8720;48.488;9.202;2022-07-10T07:23:23;3.27;;;2.60;;
17207;SDS011;8720;48.488;9.202;2022-07-10T07:25:50;2.93;;;2.60;;
17207;SDS011;8720;48.488;9.202;2022-07-10T07:28:18;2.87;;;2.20;;
17207;SDS011;8720;48.488;9.202;2022-07-10T07:30:46;3.90;;;2.10;;
17207;SDS011;8720;48.488;9.202;2022-07-10T07:33:14;2.83;;;2.53;;
17207;SDS011;8720;48.488;9.202;2022-07-10T07:35:43;2.73;;;1.80;;
17207;SDS011;8720;48.488;9.202;2022-07-10T07:38:10;4.43;;;2.47;;
17207;SDS011;8720;48.488;9.202;2022-07-10T07:40:37;2.10;;;1.90;;
17207;SDS011;8720;48.488;9.202;2022-07-10T07:43:05;4.13;;;2.33;;
17207;SDS011;8720;48.488;9.202;2022-07-10T07:45:32;2.33;;;1.97;;
17207;SDS011;8720;48.488;9.202;2022-07-10T07:47:59;2.53;;;2.00;;
17207;SDS011;8720;48.488;9.202;2022-07-10T07:50:28;2.27;;;1.80;;
17207;SDS011;8720;48.488;9.202;2022-07-10T07:52:59;2.30;;;2.10;;
17207;SDS011;8720;48.488;9.202;2022-07-10T07:55:29;2.33;;;1.80;;
17207;SDS011;8720;48.488;9.202;2022-07-10T07:57:58;3.50;;;2.33;;
17207;SDS011;8720;48.488;9.202;2022-07-10T08:00:27;6.10;;;2.23;;
17207;SDS011;8720;48.488;9.202;2022-07-10T08:02:56;2.73;;;1.87;;
17207;SDS011;8720;48.488;9.202;2022-07-10T08:05:25;2.20;;;1.97;;
17207;SDS011;8720;48.488;9.202;2022-07-10T08:07:53;3.80;;;2.10;;
17207;SDS011;8720;48.488;9.202;2022-07-10T08:10:24;2.30;;;2.10;;
17207;SDS011;8720;48.488;9.202;2022-07-10T08:12:53;2.57;;;2.37;;
17207;SDS011;8720;48.488;9.202;2022-07-10T08:15:21;2.63;;;2.20;;
17207;SDS011;8720;48.488;9.202;2022-07-10T08:17:49;3.40;;;2.07;;
17207;SDS011;8720;48.488;9.202;2022-07-10T08:20:19;3.00;;;1.80;;
17207;SDS011;8720;48.488;9.202;2022-07-10T08:22:47;4.13;;;2.13;;
17207;SDS011;8720;48.488;9.202;2022-07-10T08:25:16;2.67;;;2.43;;
17207;SDS011;8720;48.488;9.202;2022-07-10T08:27:45;2.20;;;2.00;;
17207;SDS011;8720;48.488;9.202;2022-07-10T08:30:13;4.17;;;2.20;;
17207;SDS011;8720;48.488;9.202;2022-07-10T08:32:40;2.03;;;1.73;;
17207;SDS011;8720;48.488;9.202;2022-07-10T08:35:08;4.93;;;2.30;;
17207;SDS011;8720;48.488;9.202;2022-07-10T08:37:38;2.60;;;2.40;;
17207;SDS011;8720;48.488;9.202;2022-07-10T08:40:08;4.13;;;2.30;;
17207;SDS011;8720;48.488;9.202;2022-07-10T08:42:38;5.90;;;2.17;;
17207;SDS011;8720;48.488;9.202;2022-07-10T08:45:07;3.63;;;2.50;;
17207;SDS011;8720;48.488;9.202;2022-07-10T08:47:36;4.73;;;2.00;;
17207;SDS011;8720;48.488;9.202;2022-07-10T08:50:07;2.43;;;2.23;;
17207;SDS011;8720;48.488;9.202;2022-07-10T08:52:44;3.30;;;1.93;;
17207;SDS011;8720;48.488;9.202;2022-07-10T08:55:21;2.30;;;2.10;;
17207;SDS011;8720;48.488;9.202;2022-07-10T08:57:52;1.97;;;1.70;;
17207;SDS011;8720;48.488;9.202;2022-07-10T09:00:23;2.87;;;1.80;;
17207;SDS011;8720;48.488;9.202;2022-07-10T09:02:52;2.90;;;1.87;;
17207;SDS011;8720;48.488;9.202;2022-07-10T09:05:21;2.27;;;1.83;;
17207;SDS011;8720;48.488;9.202;2022-07-10T09:07:49;3.10;;;1.90;;
17207;SDS011;8720;48.488;9.202;2022-07-10T09:10:19;5.23;;;2.17;;
17207;SDS011;8720;48.488;9.202;2022-07-10T09:12:50;2.90;;;2.03;;
17207;SDS011;8720;48.488;9.202;2022-07-10T09:15:20;3.43;;;1.90;;
17207;SDS011;8720;48.488;9.202;2022-07-10T09:17:52;3.13;;;1.70;;
17207;SDS011;8720;48.488;9.202;2022-07-10T09:20:25;4.67;;;2.20;;
17207;SDS011;8720;48.488;9.202;2022-07-10T09:22:56;4.87;;;2.03;;
17207;SDS011;8720;48.488;9.202;2022-07-10T09:25:31;2.73;;;2.40;;
17207;SDS011;8720;48.488;9.202;2022-07-10T09:27:59;3.57;;;2.30;;
17207;SDS011;8720;48.488;9.202;2022-07-10T09:30:33;3.53;;;2.03;;
17207;SDS011;8720;48.488;9.202;2022-07-10T09:33:18;3.40;;;2.10;;
17207;SDS011;8720;48.488;9.202;2022-07-10T09:35:55;3.70;;;2.00;;
17207;SDS011;8720;48.488;9.202;2022-07-10T09:38:55;3.97;;;1.90;;
17207;SDS011;8720;48.488;9.202;2022-07-10T09:41:28;3.50;;;1.80;;
17207;SDS011;8720;48.488;9.202;2022-07-10T09:43:58;2.73;;;1.97;;
17207;SDS011;8720;48.488;9.202;2022-07-10T09:46:30;4.50;;;2.03;;
17207;SDS011;8720;48.488;9.202;2022-07-10T09:49:00;2.80;;;1.70;;
17207;SDS011;8720;48.488;9.202;2022-07-10T09:51:33;2.30;;;2.05;;
17207;SDS011;8720;48.488;9.202;2022-07-10T09:54:03;3.80;;;2.35;;
17207;SDS011;8720;48.488;9.202;2022-07-10T09:56:34;2.77;;;1.97;;
17207;SDS011;8720;48.488;9.202;2022-07-10T09:59:08;3.13;;;2.07;;
17207;SDS011;8720;48.488;9.202;2022-07-10T10:01:42;2.27;;;1.80;;
17207;SDS011;8720;48.488;9.202;2022-07-10T10:04:12;2.10;;;1.77;;
17207;SDS011;8720;48.488;9.202;2022-07-10T10:06:41;3.40;;;2.03;;
17207;SDS011;8720;48.488;9.202;2022-07-10T10:09:12;2.27;;;1.87;;
17207;SDS011;8720;48.488;9.202;2022-07-10T10:11:47;2.47;;;1.80;;
17207;SDS011;8720;48.488;9.202;2022-07-10T10:14:22;1.73;;;1.50;;
17207;SDS011;8720;48.488;9.202;2022-07-10T10:16:54;2.73;;;1.93;;
17207;SDS011;8720;48.488;9.202;2022-07-10T10:19:23;2.47;;;2.13;;
17207;SDS011;8720;48.488;9.202;2022-07-10T10:22:08;3.47;;;2.00;;
17207;SDS011;8720;48.488;9.202;2022-07-10T10:24:38;2.50;;;1.70;;
17207;SDS011;8720;48.488;9.202;2022-07-10T10:27:07;1.93;;;1.60;;
17207;SDS011;8720;48.488;9.202;2022-07-10T10:29:36;3.03;;;2.10;;
17207;SDS011;8720;48.488;9.202;2022-07-10T10:32:08;2.80;;;1.83;;
17207;SDS011;8720;48.488;9.202;2022-07-10T10:34:39;2.73;;;2.53;;
17207;SDS011;8720;48.488;9.202;2022-07-10T10:40:03;2.90;;;1.80;;
17207;SDS011;8720;48.488;9.202;2022-07-10T10:42:33;2.53;;;2.33;;
17207;SDS011;8720;48.488;9.202;2022-07-10T10:48:04;1.93;;;1.63;;
17207;SDS011;8720;48.488;9.202;2022-07-10T10:50:37;1.90;;;1.80;;
17207;SDS011;8720;48.488;9.202;2022-07-10T10:53:12;2.20;;;1.50;;
17207;SDS011;8720;48.488;9.202;2022-07-10T10:55:41;1.93;;;1.73;;
17207;SDS011;8720;48.488;9.202;2022-07-10T10:58:42;3.40;;;1.70;;
17207;SDS011;8720;48.488;9.202;2022-07-10T11:01:23;2.20;;;1.93;;
17207;SDS011;8720;48.488;9.202;2022-07-10T11:06:45;2.50;;;2.30;;
17207;SDS011;8720;48.488;9.202;2022-07-10T11:09:24;2.90;;;1.67;;
17207;SDS011;8720;48.488;9.202;2022-07-10T11:12:00;3.83;;;1.63;;
17207;SDS011;8720;48.488;9.202;2022-07-10T11:14:30;2.50;;;1.50;;
17207;SDS011;8720;48.488;9.202;2022-07-10T11:17:01;3.30;;;1.97;;
17207;SDS011;8720;48.488;9.202;2022-07-10T11:19:32;2.13;;;1.73;;
17207;SDS011;8720;48.488;9.202;2022-07-10T11:22:07;1.83;;;1.47;;
17207;SDS011;8720;48.488;9.202;2022-07-10T11:25:03;2.00;;;1.80;;
17207;SDS011;8720;48.488;9.202;2022-07-10T11:28:06;2.03;;;1.73;;
17207;SDS011;8720;48.488;9.202;2022-07-10T11:33:22;1.87;;;1.67;;
17207;SDS011;8720;48.488;9.202;2022-07-10T11:35:51;2.63;;;1.70;;
17207;SDS011;8720;48.488;9.202;2022-07-10T11:38:20;3.67;;;1.90;;
17207;SDS011;8720;48.488;9.202;2022-07-10T11:40:49;2.90;;;1.93;;
17207;SDS011;8720;48.488;9.202;2022-07-10T11:43:20;2.40;;;2.00;;
17207;SDS011;8720;48.488;9.202;2022-07-10T11:45:49;4.33;;;3.70;;
17207;SDS011;8720;48.488;9.202;2022-07-10T11:48:17;3.33;;;1.97;;
17207;SDS011;8720;48.488;9.202;2022-07-10T11:50:46;1.60;;;1.50;;
17207;SDS011;8720;48.488;9.202;2022-07-10T11:53:23;2.70;;;1.80;;
17207;SDS011;8720;48.488;9.202;2022-07-10T11:55:52;3.13;;;1.97;;
17207;SDS011;8720;48.488;9.202;2022-07-10T11:58:20;2.90;;;2.00;;
17207;SDS011;8720;48.488;9.202;2022-07-10T12:00:58;2.27;;;1.97;;
17207;SDS011;8720;48.488;9.202;2022-07-10T12:03:29;2.33;;;1.70;;
17207;SDS011;8720;48.488;9.202;2022-07-10T12:06:00;2.47;;;1.73;;
17207;SDS011;8720;48.488;9.202;2022-07-10T12:08:31;2.87;;;1.63;;
17207;SDS011;8720;48.488;9.202;2022-07-10T12:11:13;2.33;;;1.67;;
17207;SDS011;8720;48.488;9.202;2022-07-10T12:13:43;2.60;;;1.90;;
17207;SDS011;8720;48.488;9.202;2022-07-10T12:16:11;1.83;;;1.63;;
17207;SDS011;8720;48.488;9.202;2022-07-10T12:18:39;2.03;;;1.80;;
17207;SDS011;8720;48.488;9.202;2022-07-10T12:21:10;4.87;;;2.13;;
17207;SDS011;8720;48.488;9.202;2022-07-10T12:23:40;2.33;;;1.83;;
17207;SDS011;8720;48.488;9.202;2022-07-10T12:26:11;2.13;;;1.73;;
17207;SDS011;8720;48.488;9.202;2022-07-10T12:28:50;1.87;;;1.73;;
17207;SDS011;8720;48.488;9.202;2022-07-10T12:31:22;2.83;;;1.57;;
17207;SDS011;8720;48.488;9.202;2022-07-10T12:33:55;2.47;;;1.47;;
17207;SDS011;8720;48.488;9.202;2022-07-10T12:36:36;2.03;;;1.83;;
17207;SDS011;8720;48.488;9.202;2022-07-10T12:39:14;2.60;;;1.53;;
17207;SDS011;8720;48.488;9.202;2022-07-10T12:41:52;2.63;;;1.77;;
17207;SDS011;8720;48.488;9.202;2022-07-10T12:44:38;2.23;;;1.80;;
17207;SDS011;8720;48.488;9.202;2022-07-10T12:47:08;1.77;;;1.67;;
17207;SDS011;8720;48.488;9.202;2022-07-10T12:49:49;3.63;;;1.70;;
17207;SDS011;8720;48.488;9.202;2022-07-10T12:52:19;2.40;;;1.73;;
17207;SDS011;8720;48.488;9.202;2022-07-10T12:54:58;2.10;;;1.80;;
17207;SDS011;8720;48.488;9.202;2022-07-10T12:57:50;2.70;;;1.93;;
17207;SDS011;8720;48.488;9.202;2022-07-10T13:00:20;2.77;;;1.60;;
17207;SDS011;8720;48.488;9.202;2022-07-10T13:02:50;1.67;;;1.50;;
17207;SDS011;8720;48.488;9.202;2022-07-10T13:05:28;2.43;;;1.70;;
17207;SDS011;8720;48.488;9.202;2022-07-10T13:08:08;4.00;;;2.17;;
17207;SDS011;8720;48.488;9.202;2022-07-10T13:10:41;3.20;;;1.53;;
17207;SDS011;8720;48.488;9.202;2022-07-10T13:13:10;2.90;;;1.60;;
17207;SDS011;8720;48.488;9.202;2022-07-10T13:15:38;2.03;;;1.30;;
17207;SDS011;8720;48.488;9.202;2022-07-10T13:18:12;4.03;;;1.80;;
17207;SDS011;8720;48.488;9.202;2022-07-10T13:20:42;1.50;;;1.30;;
17207;SDS011;8720;48.488;9.202;2022-07-10T13:23:10;2.20;;;1.50;;
17207;SDS011;8720;48.488;9.202;2022-07-10T13:25:41;2.17;;;1.17;;
17207;SDS011;8720;48.488;9.202;2022-07-10T13:28:09;1.73;;;1.30;;
17207;SDS011;8720;48.488;9.202;2022-07-10T13:30:37;4.73;;;1.50;;
17207;SDS011;8720;48.488;9.202;2022-07-10T13:33:05;3.20;;;1.43;;
17207;SDS011;8720;48.488;9.202;2022-07-10T13:35:32;1.77;;;1.20;;
17207;SDS011;8720;48.488;9.202;2022-07-10T13:38:00;2.30;;;1.60;;
17207;SDS011;8720;48.488;9.202;2022-07-10T13:40:29;1.67;;;1.57;;
17207;SDS011;8720;48.488;9.202;2022-07-10T13:43:00;2.37;;;1.20;;
17207;SDS011;8720;48.488;9.202;2022-07-10T13:45:28;2.03;;;1.23;;
17207;SDS011;8720;48.488;9.202;2022-07-10T13:47:58;2.20;;;1.20;;
17207;SDS011;8720;48.488;9.202;2022-07-10T13:50:26;1.30;;;1.00;;
17207;SDS011;8720;48.488;9.202;2022-07-10T13:52:53;2.93;;;1.27;;
17207;SDS011;8720;48.488;9.202;2022-07-10T13:55:20;2.50;;;1.60;;
17207;SDS011;8720;48.488;9.202;2022-07-10T13:57:48;1.93;;;1.40;;
17207;SDS011;8720;48.488;9.202;2022-07-10T14:00:16;2.27;;;1.30;;
17207;SDS011;8720;48.488;9.202;2022-07-10T14:02:44;2.03;;;1.30;;
17207;SDS011;8720;48.488;9.202;2022-07-10T14:05:11;1.50;;;1.10;;
17207;SDS011;8720;48.488;9.202;2022-07-10T14:07:38;2.30;;;1.23;;
17207;SDS011;8720;48.488;9.202;2022-07-10T14:10:06;2.00;;;1.10;;
17207;SDS011;8720;48.488;9.202;2022-07-10T14:12:35;2.57;;;1.40;;
17207;SDS011;8720;48.488;9.202;2022-07-10T14:15:03;1.80;;;1.20;;
17207;SDS011;8720;48.488;9.202;2022-07-10T14:17:32;2.13;;;1.13;;
17207;SDS011;8720;48.488;9.202;2022-07-10T14:19:59;2.20;;;1.13;;
17207;SDS011;8720;48.488;9.202;2022-07-10T14:22:27;3.77;;;1.27;;
17207;SDS011;8720;48.488;9.202;2022-07-10T14:24:55;1.30;;;1.00;;
17207;SDS011;8720;48.488;9.202;2022-07-10T14:27:25;1.73;;;1.07;;
17207;SDS011;8720;48.488;9.202;2022-07-10T14:29:54;1.70;;;1.10;;
17207;SDS011;8720;48.488;9.202;2022-07-10T14:32:21;1.40;;;1.00;;
17207;SDS011;8720;48.488;9.202;2022-07-10T14:34:50;1.70;;;1.30;;
17207;SDS011;8720;48.488;9.202;2022-07-10T14:37:17;1.60;;;1.20;;
17207;SDS011;8720;48.488;9.202;2022-07-10T14:39:45;1.83;;;1.10;;
17207;SDS011;8720;48.488;9.202;2022-07-10T14:42:12;2.70;;;0.90;;
17207;SDS011;8720;48.488;9.202;2022-07-10T14:44:39;1.37;;;1.10;;
17207;SDS011;8720;48.488;9.202;2022-07-10T14:47:06;1.70;;;1.10;;
17207;SDS011;8720;48.488;9.202;2022-07-10T14:49:34;1.80;;;1.03;;
17207;SDS011;8720;48.488;9.202;2022-07-10T14:52:03;3.93;;;0.90;;
17207;SDS011;8720;48.488;9.202;2022-07-10T14:54:31;1.30;;;1.00;;
17207;SDS011;8720;48.488;9.202;2022-07-10T14:56:58;1.40;;;0.87;;
17207;SDS011;8720;48.488;9.202;2022-07-10T14:59:25;1.40;;;0.90;;
17207;SDS011;8720;48.488;9.202;2022-07-10T15:01:52;2.70;;;0.90;;
17207;SDS011;8720;48.488;9.202;2022-07-10T15:04:20;3.30;;;1.20;;
17207;SDS011;8720;48.488;9.202;2022-07-10T15:06:50;1.10;;;0.90;;
17207;SDS011;8720;48.488;9.202;2022-07-10T15:09:19;2.00;;;0.80;;
17207;SDS011;8720;48.488;9.202;2022-07-10T15:11:46;1.67;;;0.93;;
17207;SDS011;8720;48.488;9.202;2022-07-10T15:14:13;2.27;;;1.10;;
17207;SDS011;8720;48.488;9.202;2022-07-10T15:16:41;1.87;;;1.10;;
17207;SDS011;8720;48.488;9.202;2022-07-10T15:19:08;1.70;;;1.10;;
17207;SDS011;8720;48.488;9.202;2022-07-10T15:21:36;2.97;;;1.27;;
17207;SDS011;8720;48.488;9.202;2022-07-10T15:24:04;1.30;;;1.10;;
17207;SDS011;8720;48.488;9.202;2022-07-10T15:26:33;2.17;;;1.07;;
17207;SDS011;8720;48.488;9.202;2022-07-10T15:29:00;1.67;;;1.10;;